createdAt,value
2022-11-20T00:01:24.741Z,10.55
2022-11-20T00:03:53.284Z,10.90
2022-11-20T00:06:21.176Z,11.32
2022-11-20T00:08:51.141Z,10.52
2022-11-20T00:11:22.452Z,11.00
2022-11-20T00:13:51.906Z,10.10
2022-11-20T00:16:21.462Z,10.00
2022-11-20T00:18:53.223Z,10.18
2022-11-20T00:21:23.246Z,11.23
2022-11-20T00:23:54.843Z,10.35
2022-11-20T00:26:24.223Z,11.00
2022-11-20T00:28:53.820Z,10.82
2022-11-20T00:31:22.248Z,11.30
2022-11-20T00:33:51.295Z,11.30
2022-11-20T00:36:22.372Z,10.88
2022-11-20T00:38:57.919Z,10.63
2022-11-20T00:41:30.222Z,11.07
2022-11-20T00:43:58.233Z,11.77
2022-11-20T00:46:27.493Z,11.10
2022-11-20T00:48:55.351Z,11.48
2022-11-20T00:51:27.376Z,11.45
2022-11-20T00:53:59.002Z,10.95
2022-11-20T00:56:26.794Z,10.88
2022-11-20T00:58:55.496Z,11.25
2022-11-20T01:01:27.834Z,12.07
2022-11-20T01:03:56.435Z,12.80
2022-11-20T01:06:29.401Z,14.52
2022-11-20T01:08:59.456Z,14.75
2022-11-20T01:11:29.055Z,15.90
2022-11-20T01:13:57.885Z,16.08
2022-11-20T01:16:32.937Z,16.02
2022-11-20T01:19:05.882Z,15.38
2022-11-20T01:21:35.496Z,15.15
2022-11-20T01:24:09.104Z,15.27
2022-11-20T01:26:37.779Z,15.05
2022-11-20T01:29:06.096Z,15.52
2022-11-20T01:31:35.159Z,14.10
2022-11-20T01:34:04.757Z,14.73
2022-11-20T01:36:33.045Z,14.27
2022-11-20T01:39:02.751Z,14.90
2022-11-20T01:41:49.884Z,14.52
2022-11-20T01:44:20.623Z,14.73
2022-11-20T01:46:57.145Z,14.65
2022-11-20T01:49:29.849Z,13.88
2022-11-20T01:52:00.701Z,13.70
2022-11-20T01:54:37.706Z,13.73
2022-11-20T01:57:05.365Z,13.50
2022-11-20T01:59:35.574Z,12.90
2022-11-20T02:02:03.506Z,13.70
2022-11-20T02:04:33.765Z,14.18
2022-11-20T02:07:02.484Z,13.18
2022-11-20T02:09:30.223Z,12.95
2022-11-20T02:11:58.699Z,13.07
2022-11-20T02:14:26.262Z,12.90
2022-11-20T02:16:54.484Z,13.65
2022-11-20T02:19:28.947Z,13.50
2022-11-20T02:22:29.867Z,12.70
2022-11-20T02:24:58.540Z,13.57
2022-11-20T02:27:26.576Z,12.93
2022-11-20T02:29:56.476Z,13.45
2022-11-20T02:32:27.203Z,13.20
2022-11-20T02:34:55.123Z,13.32
2022-11-20T02:37:22.928Z,13.40
2022-11-20T02:39:51.679Z,14.15
2022-11-20T02:42:19.712Z,14.45
2022-11-20T02:44:47.443Z,12.52
2022-11-20T02:47:15.306Z,13.68
2022-11-20T02:49:44.245Z,13.18
2022-11-20T02:52:11.953Z,11.82
2022-11-20T02:54:40.200Z,12.57
2022-11-20T02:57:08.401Z,11.90
2022-11-20T02:59:36.244Z,13.32
2022-11-20T03:02:04.198Z,13.07
2022-11-20T03:04:33.134Z,13.25
2022-11-20T03:07:00.873Z,12.88
2022-11-20T03:09:28.870Z,12.57
2022-11-20T03:11:56.637Z,12.43
2022-11-20T03:14:24.357Z,11.45
2022-11-20T03:16:52.153Z,12.38
2022-11-20T03:19:21.019Z,11.32
2022-11-20T03:21:49.187Z,12.15
2022-11-20T03:24:16.894Z,12.10
2022-11-20T03:26:44.978Z,12.05
2022-11-20T03:29:13.213Z,12.48
2022-11-20T03:31:41.683Z,12.38
2022-11-20T03:34:10.449Z,12.57
2022-11-20T03:36:40.772Z,13.10
2022-11-20T03:39:13.322Z,12.32
2022-11-20T03:41:44.686Z,13.50
2022-11-20T03:44:12.721Z,12.55
2022-11-20T03:46:40.566Z,12.45
2022-11-20T03:49:08.417Z,12.52
2022-11-20T03:51:36.856Z,12.85
2022-11-20T03:54:09.230Z,12.50
2022-11-20T03:56:38.752Z,11.48
2022-11-20T03:59:06.530Z,12.75
2022-11-20T04:01:37.213Z,13.55
2022-11-20T04:04:05.083Z,13.07
2022-11-20T04:06:36.733Z,13.05
2022-11-20T04:09:04.907Z,13.02
2022-11-20T04:11:34.443Z,14.25
2022-11-20T04:14:07.024Z,13.77
2022-11-20T04:16:36.596Z,13.88
2022-11-20T04:19:06.034Z,14.00
2022-11-20T04:21:37.341Z,12.43
2022-11-20T04:24:05.358Z,12.65
2022-11-20T04:26:33.771Z,13.27
2022-11-20T04:29:02.975Z,13.05
2022-11-20T04:31:33.603Z,15.10
2022-11-20T04:34:05.751Z,12.73
2022-11-20T04:36:34.076Z,12.57
2022-11-20T04:39:06.167Z,13.13
2022-11-20T04:41:36.632Z,14.23
2022-11-20T04:44:05.909Z,13.85
2022-11-20T04:46:38.220Z,13.63
2022-11-20T04:49:06.468Z,12.98
2022-11-20T04:51:34.665Z,14.80
2022-11-20T04:54:03.979Z,14.43
2022-11-20T04:56:32.441Z,15.55
2022-11-20T04:59:03.313Z,16.95
2022-11-20T05:04:18.183Z,16.42
2022-11-20T05:06:46.924Z,16.83
2022-11-20T05:09:14.797Z,18.33
2022-11-20T05:11:43.405Z,15.23
2022-11-20T05:14:16.215Z,16.05
2022-11-20T05:16:46.799Z,14.68
2022-11-20T05:19:14.509Z,17.35
2022-11-20T05:21:42.206Z,19.25
2022-11-20T05:24:10.077Z,16.05
2022-11-20T05:26:39.144Z,16.45
2022-11-20T05:29:06.906Z,16.58
2022-11-20T05:31:39.885Z,17.20
2022-11-20T05:34:12.438Z,15.90
2022-11-20T05:36:40.690Z,16.08
2022-11-20T05:39:08.695Z,15.50
2022-11-20T05:41:37.113Z,14.82
2022-11-20T05:44:05.332Z,13.88
2022-11-20T05:46:36.052Z,13.70
2022-11-20T05:49:03.982Z,13.18
2022-11-20T05:51:37.766Z,13.52
2022-11-20T05:54:08.642Z,14.55
2022-11-20T05:56:36.496Z,12.70
2022-11-20T05:59:04.189Z,13.70
2022-11-20T06:01:31.826Z,12.60
2022-11-20T06:04:00.052Z,16.13
2022-11-20T06:06:27.889Z,13.70
2022-11-20T06:08:56.101Z,14.20
2022-11-20T06:11:24.449Z,13.77
2022-11-20T06:13:52.167Z,13.57
2022-11-20T06:16:21.548Z,13.15
2022-11-20T06:18:49.761Z,13.25
2022-11-20T06:21:21.976Z,15.15
2022-11-20T06:23:50.546Z,15.68
2022-11-20T06:26:20.559Z,16.33
2022-11-20T06:28:48.632Z,15.55
2022-11-20T06:31:18.844Z,15.27
2022-11-20T06:33:47.135Z,15.30
2022-11-20T06:36:16.216Z,15.80
2022-11-20T06:38:46.352Z,14.77
2022-11-20T06:41:19.865Z,15.63
2022-11-20T06:43:47.828Z,14.73
2022-11-20T06:46:18.711Z,15.77
2022-11-20T06:48:47.424Z,16.95
2022-11-20T06:51:15.658Z,16.17
2022-11-20T06:53:43.552Z,15.18
2022-11-20T06:56:11.204Z,14.32
2022-11-20T06:58:39.199Z,16.10
2022-11-20T07:01:14.262Z,15.50
2022-11-20T07:03:42.756Z,14.98
2022-11-20T07:06:10.527Z,15.82
2022-11-20T07:08:38.682Z,14.82
2022-11-20T07:11:07.395Z,16.05
2022-11-20T11:04:28.738Z,21.88
2022-11-20T11:07:02.484Z,20.02
2022-11-20T11:09:35.757Z,20.38
2022-11-20T11:12:07.957Z,18.77
2022-11-20T11:14:46.993Z,19.02
2022-11-20T11:17:28.074Z,18.88
2022-11-20T11:20:21.812Z,17.83
2022-11-20T11:22:53.675Z,17.45
2022-11-20T11:25:27.649Z,19.85
2022-11-20T11:27:57.462Z,15.93
2022-11-20T11:30:25.729Z,17.42
2022-11-20T11:33:05.531Z,16.95
2022-11-20T11:35:35.407Z,16.80
2022-11-20T11:38:05.948Z,16.25
2022-11-20T11:40:36.573Z,17.23
2022-11-20T11:43:38.108Z,16.38
2022-11-20T11:46:24.770Z,15.13
2022-11-20T11:49:00.639Z,15.75
2022-11-20T11:52:05.938Z,15.05
2022-11-20T11:54:44.586Z,12.82
2022-11-20T11:57:38.248Z,14.20
2022-11-20T12:00:10.262Z,16.90
2022-11-20T12:02:54.003Z,16.27
2022-11-20T12:05:39.836Z,15.55
2022-11-20T12:08:28.813Z,17.15
2022-11-20T12:11:15.807Z,16.77
2022-11-20T12:13:54.641Z,14.68
2022-11-20T12:16:22.296Z,15.45
2022-11-20T12:18:52.670Z,15.00
2022-11-20T12:21:32.536Z,15.48
2022-11-20T12:24:22.220Z,14.88
2022-11-20T12:27:11.802Z,16.23
2022-11-20T12:29:47.856Z,17.25
2022-11-20T12:32:44.305Z,14.95
2022-11-20T12:35:39.140Z,15.80
2022-11-20T12:38:20.044Z,15.43
2022-11-20T12:40:57.217Z,15.23
2022-11-20T12:43:47.142Z,15.50
2022-11-20T12:46:36.179Z,14.35
2022-11-20T12:49:25.364Z,14.45
2022-11-20T12:52:04.818Z,15.68
2022-11-20T12:54:39.082Z,13.70
2022-11-20T12:57:31.095Z,14.73
2022-11-20T13:00:08.501Z,13.60
2022-11-20T13:03:06.294Z,12.98
2022-11-20T13:06:01.057Z,13.40
2022-11-20T13:08:37.513Z,15.32
2022-11-20T13:11:26.605Z,13.20
2022-11-20T13:14:26.500Z,13.38
2022-11-20T13:17:30.999Z,12.82
2022-11-20T13:20:00.193Z,12.50
2022-11-20T13:22:45.218Z,13.90
2022-11-20T13:25:28.004Z,11.55
2022-11-20T13:27:57.191Z,12.73
2022-11-20T13:30:26.273Z,13.35
2022-11-20T13:33:08.099Z,13.13
2022-11-20T13:35:58.416Z,13.70
2022-11-20T13:38:28.840Z,11.88
2022-11-20T13:41:24.474Z,12.52
2022-11-20T13:43:53.429Z,11.07
2022-11-20T13:46:25.741Z,10.63
2022-11-20T13:49:01.552Z,12.02
2022-11-20T13:51:39.300Z,10.70
2022-11-20T13:54:21.159Z,10.65
2022-11-20T13:57:11.340Z,9.73
2022-11-20T13:59:52.116Z,9.68
2022-11-20T14:02:24.835Z,12.00
2022-11-20T14:04:57.858Z,12.00
2022-11-20T14:07:40.164Z,10.45
2022-11-20T14:10:27.075Z,9.80
2022-11-20T14:12:59.469Z,9.93
2022-11-20T14:15:30.713Z,9.57
2022-11-20T14:17:59.576Z,9.55
2022-11-20T14:20:32.418Z,9.45
2022-11-20T14:23:00.411Z,9.93
2022-11-20T14:25:39.768Z,9.23
2022-11-20T14:28:12.027Z,8.75
2022-11-20T14:30:48.282Z,9.63
2022-11-20T14:33:16.947Z,9.18
2022-11-20T14:35:50.880Z,10.73
2022-11-20T14:38:21.400Z,8.13
2022-11-20T14:40:49.392Z,9.95
2022-11-20T14:43:24.590Z,8.38
2022-11-20T14:46:11.435Z,10.65
2022-11-20T14:48:41.167Z,7.85
2022-11-20T14:51:13.251Z,9.30
2022-11-20T14:53:44.318Z,10.05
2022-11-20T14:56:12.656Z,8.82
2022-11-20T14:58:40.758Z,9.35
2022-11-20T15:01:13.434Z,8.70
2022-11-20T15:03:43.098Z,8.15
2022-11-20T15:06:12.782Z,7.85
2022-11-20T15:08:53.272Z,5.67
2022-11-20T15:11:28.709Z,6.28
2022-11-20T15:13:56.996Z,7.30
2022-11-20T15:16:28.120Z,7.65
2022-11-20T15:19:01.247Z,7.57
2022-11-20T15:21:29.079Z,7.57
2022-11-20T15:23:57.457Z,7.10
2022-11-20T15:26:26.908Z,7.13
2022-11-20T15:28:54.929Z,7.68
2022-11-20T15:31:24.773Z,7.10
2022-11-20T15:34:01.591Z,8.13
2022-11-20T15:36:29.698Z,7.50
2022-11-20T15:38:57.728Z,7.97
2022-11-20T15:41:25.906Z,7.35
2022-11-20T15:43:56.698Z,6.35
2022-11-20T15:48:56.285Z,7.82
2022-11-20T15:51:32.344Z,7.75
2022-11-20T15:54:00.432Z,10.40
2022-11-20T15:56:28.515Z,6.95
2022-11-20T15:58:56.651Z,8.20
2022-11-20T16:01:24.567Z,7.72
2022-11-20T16:03:52.955Z,8.00
2022-11-20T16:06:22.297Z,7.38
2022-11-20T16:08:51.628Z,6.10
2022-11-20T16:11:19.685Z,8.05
2022-11-20T16:14:06.333Z,15.15
2022-11-20T16:16:36.699Z,7.30
2022-11-20T16:19:05.460Z,7.85
2022-11-20T18:59:54.580Z,14.98
2022-11-20T19:02:23.541Z,14.80
2022-11-20T19:04:52.140Z,19.13
2022-11-20T19:07:20.623Z,17.20
2022-11-20T19:09:52.925Z,16.42
2022-11-20T19:12:21.164Z,17.95
2022-11-20T19:14:50.216Z,15.80
2022-11-20T19:17:18.892Z,16.63
2022-11-20T19:19:49.791Z,17.95
2022-11-20T19:22:17.689Z,20.17
2022-11-20T19:24:46.191Z,21.17
2022-11-20T19:27:14.817Z,21.33
2022-11-20T19:29:42.752Z,20.33
2022-11-20T19:32:10.630Z,20.10
2022-11-20T19:34:38.672Z,19.75
2022-11-20T19:37:06.607Z,20.98
2022-11-20T19:39:36.476Z,19.92
2022-11-20T19:42:05.382Z,24.20
2022-11-20T19:44:33.618Z,23.10
2022-11-20T19:47:03.379Z,27.55
2022-11-20T19:49:31.520Z,24.13
2022-11-20T19:51:59.561Z,22.50
2022-11-20T19:54:27.549Z,24.42
2022-11-20T19:56:55.672Z,24.05
2022-11-20T19:59:23.626Z,21.95
2022-11-20T20:01:52.479Z,24.85
2022-11-20T20:04:20.748Z,25.25
2022-11-20T20:06:50.932Z,27.35
2022-11-20T20:09:18.798Z,25.65
2022-11-20T20:11:47.357Z,29.17
2022-11-20T20:14:16.080Z,27.10
2022-11-20T20:16:45.876Z,27.27
2022-11-20T20:19:15.256Z,27.42
2022-11-20T20:21:44.122Z,29.60
2022-11-20T20:24:12.397Z,30.10
2022-11-20T20:26:40.337Z,29.65
2022-11-20T20:29:08.212Z,31.65
2022-11-20T20:31:36.153Z,32.15
2022-11-20T20:34:05.566Z,41.38
2022-11-20T20:36:33.480Z,41.28
2022-11-20T20:39:02.912Z,36.28
2022-11-20T20:41:31.096Z,27.92
2022-11-20T20:44:17.562Z,30.13
2022-11-20T20:46:45.635Z,34.33
2022-11-20T20:49:13.641Z,31.65
2022-11-20T20:51:41.554Z,35.05
2022-11-20T20:54:09.715Z,38.92
2022-11-20T20:56:37.600Z,33.83
2022-11-20T20:59:06.685Z,37.00
2022-11-20T21:01:34.680Z,32.40
2022-11-20T21:04:02.932Z,32.30
2022-11-20T21:06:31.009Z,35.45
2022-11-20T21:08:59.229Z,34.28
2022-11-20T21:11:27.556Z,35.83
2022-11-20T21:13:56.861Z,39.28
2022-11-20T21:16:25.707Z,41.15
2022-11-20T21:18:54.735Z,41.13
2022-11-20T21:21:41.321Z,40.03
2022-11-20T21:24:09.327Z,38.72
2022-11-20T21:26:37.341Z,39.50
2022-11-20T21:29:05.636Z,39.33
2022-11-20T21:31:33.504Z,34.85
2022-11-20T21:34:02.106Z,37.58
2022-11-20T21:36:31.249Z,36.53
2022-11-20T21:38:59.848Z,40.80
2022-11-20T21:41:28.735Z,44.22
2022-11-20T21:46:46.181Z,38.20
2022-11-20T21:49:15.897Z,35.40
2022-11-20T21:51:43.686Z,38.03
2022-11-20T21:54:11.977Z,37.95
2022-11-20T21:56:39.928Z,39.63
2022-11-20T21:59:12.327Z,41.40
2022-11-20T22:01:40.265Z,36.78
2022-11-20T22:04:12.884Z,39.25
2022-11-20T22:06:40.636Z,40.58
